B06 weather

Basin Harbor Airport
Vergennes, Vermont, United States

Public forecast

Using degrees Fahrenheit for public forecast. Weather courtesy of forecast.io.

Closest aviation weather report (METAR) to Basin Harbor Airport

Closest report is Burlington International Airport, 18.6 nm (34.4 km) NNE. Retrieved 2019/10/16 17:54 UTC (41 minutes ago):

KBTV 161754Z 14012G18KT 10SM OVC050 17/04 A2976 RMK AO2 SLP079 T01670039 10172 20067 58027

Closest aviation forecast (TAF) to Basin Harbor Airport

Closest forecast is Burlington International Airport, 18.6 nm (34.4 km) NNE. Retrieved 2019/10/16 18:30 UTC (5 minutes ago):

TAF KBTV 161726Z 1618/1718 15015G24KT P6SM OVC045 FM170200 12013G21KT 6SM -RA OVC060 FM170500 09012G20KT 5SM +RA BR OVC027 FM171000 01020G35KT 4SM +RA BR OVC008